Time;durP1;ratioP1;P1;durP2;ratioP2;P2;SDS_P1;SDS_P2;PMS_P1;PMS_P2;Temp;Humidity;BMP_temperature;BMP_pressure;BME280_temperature;BME280_humidity;BME280_pressure;Samples;Min_cycle;Max_cycle;Signal;HPM_P1;HPM_P2
2021/04/20 00:01:22;;;;;;;1999.90;999.90;;;19.50;70.50;;;;;;5030119;28;20314;-58
2021/04/20 00:03:49;;;;;;;1999.90;999.90;;;19.30;71.20;;;;;;5030177;28;20174;-51
2021/04/20 00:06:16;;;;;;;1999.90;999.90;;;19.20;71.70;;;;;;5030214;28;20307;-49
2021/04/20 00:08:43;;;;;;;1999.90;999.90;;;19.10;72.50;;;;;;5030211;28;20173;-38
2021/04/20 00:11:10;;;;;;;1999.90;999.90;;;19.00;72.90;;;;;;5030156;28;20181;-47
2021/04/20 00:13:37;;;;;;;1999.90;999.90;;;18.90;73.60;;;;;;5030048;28;20161;-45
2021/04/20 00:16:04;;;;;;;1999.90;999.90;;;18.90;74.40;;;;;;5029901;28;20182;-60
2021/04/20 00:18:31;;;;;;;1999.90;999.90;;;18.90;74.60;;;;;;5028556;28;20644;-59
2021/04/20 00:20:58;;;;;;;1999.90;999.90;;;18.90;74.60;;;;;;5029702;28;20290;-39
2021/04/20 00:23:25;;;;;;;1999.90;999.90;;;18.90;74.70;;;;;;5030032;28;20161;-58
2021/04/20 00:25:52;;;;;;;1999.90;999.90;;;18.80;75.20;;;;;;5030446;28;20162;-48
2021/04/20 00:28:23;;;;;;;1999.90;999.90;;;18.80;75.80;;;;;;5029903;28;20716;-45
2021/04/20 00:30:50;;;;;;;1999.90;999.90;;;18.80;75.90;;;;;;5029883;28;20194;-48
2021/04/20 00:33:18;;;;;;;1999.90;999.90;;;18.60;76.20;;;;;;5029918;28;20195;-51
2021/04/20 00:35:45;;;;;;;1999.90;999.90;;;18.60;76.60;;;;;;5030020;28;20228;-58
2021/04/20 00:38:13;;;;;;;1999.90;999.90;;;18.70;77.10;;;;;;5030024;28;20197;-48
2021/04/20 00:40:40;;;;;;;1999.90;999.90;;;18.60;77.30;;;;;;5029782;28;20201;-64
2021/04/20 00:43:07;;;;;;;1999.90;999.90;;;18.70;77.20;;;;;;5029897;28;20238;-62
2021/04/20 00:45:36;;;;;;;1999.90;999.90;;;18.70;77.30;;;;;;5029731;28;20590;-62
2021/04/20 00:48:04;;;;;;;1999.90;999.90;;;18.70;77.30;;;;;;5029675;28;20205;-59
2021/04/20 00:50:39;;;;;;;1999.90;999.90;;;18.60;77.20;;;;;;5029789;28;20185;-51
2021/04/20 00:53:08;;;;;;;1999.90;999.90;;;18.60;77.50;;;;;;5029711;28;20216;-48
2021/04/20 00:55:36;;;;;;;1999.90;999.90;;;18.70;77.60;;;;;;5029606;28;20205;-44
2021/04/20 00:58:03;;;;;;;1999.90;999.90;;;18.70;77.80;;;;;;5029585;28;20174;-48
2021/04/20 01:00:32;;;;;;;1999.90;999.90;;;18.60;78.70;;;;;;5029628;28;20213;-44
2021/04/20 01:03:00;;;;;;;1999.90;999.90;;;18.50;78.30;;;;;;5032520;28;20636;-49
2021/04/20 01:05:33;;;;;;;1999.90;999.90;;;18.50;78.70;;;;;;5032956;28;20611;-53
2021/04/20 01:08:11;;;;;;;1999.90;999.90;;;18.50;78.50;;;;;;5032750;28;20249;-59
2021/04/20 01:10:57;;;;;;;1999.90;999.90;;;18.40;78.70;;;;;;5032871;28;20563;-61
2021/04/20 01:13:26;;;;;;;1999.90;999.90;;;18.40;79.20;;;;;;5032808;28;20154;-60
2021/04/20 01:15:54;;;;;;;1999.90;999.90;;;18.40;79.20;;;;;;5032861;28;20162;-53
2021/04/20 01:18:24;;;;;;;1999.90;999.90;;;18.40;79.00;;;;;;5032872;28;20170;-45
2021/04/20 01:20:59;;;;;;;1999.90;999.90;;;18.40;79.50;;;;;;5032541;28;20239;-37
2021/04/20 01:24:02;;;;;;;1999.90;999.90;;;18.30;79.80;;;;;;5032871;28;20154;-48
2021/04/20 01:26:32;;;;;;;1999.90;999.90;;;18.30;80.00;;;;;;5032773;28;20245;-55
2021/04/20 01:28:59;;;;;;;1999.90;999.90;;;18.40;80.00;;;;;;5032594;28;20173;-39
2021/04/20 01:31:32;;;;;;;1999.90;999.90;;;18.40;79.80;;;;;;5032653;28;20212;-59
2021/04/20 01:33:59;;;;;;;1999.90;999.90;;;18.40;80.00;;;;;;5032526;28;20621;-52
2021/04/20 01:36:28;;;;;;;1999.90;999.90;;;18.40;80.50;;;;;;5032576;28;20173;-50
2021/04/20 01:38:56;;;;;;;1999.90;999.90;;;18.40;79.80;;;;;;5032537;28;20667;-58
2021/04/20 01:41:25;;;;;;;1999.90;999.90;;;18.40;79.90;;;;;;5032407;28;20284;-43
2021/04/20 01:43:54;;;;;;;1999.90;999.90;;;18.30;80.20;;;;;;5032529;28;20504;-44
2021/04/20 01:46:22;;;;;;;1999.90;999.90;;;18.30;80.70;;;;;;5032612;28;20187;-57
2021/04/20 01:48:50;;;;;;;1999.90;999.90;;;18.30;80.80;;;;;;5032477;28;20162;-52
2021/04/20 01:51:18;;;;;;;1999.90;999.90;;;18.30;80.50;;;;;;5032419;28;20174;-51
2021/04/20 01:53:49;;;;;;;1999.90;999.90;;;18.20;80.90;;;;;;5032208;28;20173;-48
2021/04/20 01:56:16;;;;;;;1999.90;999.90;;;18.20;81.40;;;;;;5032330;28;20253;-57
2021/04/20 01:58:45;;;;;;;1999.90;999.90;;;18.10;82.10;;;;;;5032146;28;20208;-49
2021/04/20 02:01:21;;;;;;;1999.90;999.90;;;18.10;82.30;;;;;;5032059;28;20233;-38
2021/04/20 02:03:50;;;;;;;1999.90;999.90;;;18.10;82.40;;;;;;5032264;28;20158;-44
2021/04/20 02:06:19;;;;;;;1999.90;999.90;;;18.10;82.10;;;;;;5032114;28;20629;-38
2021/04/20 02:08:47;;;;;;;1999.90;999.90;;;18.10;82.20;;;;;;5032075;28;20242;-42
2021/04/20 02:11:19;;;;;;;1999.90;999.90;;;18.10;81.70;;;;;;5031913;28;20250;-39
2021/04/20 02:13:47;;;;;;;1999.90;999.90;;;18.10;81.90;;;;;;5030848;28;20162;-56
2021/04/20 02:16:15;;;;;;;1999.90;999.90;;;18.10;81.90;;;;;;5031818;28;20167;-56
2021/04/20 02:18:49;;;;;;;1999.90;999.90;;;18.00;81.80;;;;;;5031897;28;20178;-38
2021/04/20 02:21:18;;;;;;;1999.90;999.90;;;18.00;82.10;;;;;;5031630;28;20282;-52
2021/04/20 02:23:46;;;;;;;1999.90;999.90;;;18.00;82.50;;;;;;5031943;28;20177;-54
2021/04/20 02:26:28;;;;;;;1999.90;999.90;;;17.90;82.50;;;;;;5031876;28;20214;-50
2021/04/20 02:28:59;;;;;;;1999.90;999.90;;;18.00;82.70;;;;;;5031898;28;20166;-44
2021/04/20 02:31:26;;;;;;;1999.90;999.90;;;18.00;82.80;;;;;;5031725;28;20162;-61
2021/04/20 02:33:57;;;;;;;1999.90;999.90;;;18.00;82.70;;;;;;5031620;28;20178;-54
2021/04/20 02:36:24;;;;;;;1999.90;999.90;;;18.00;82.80;;;;;;5031799;28;20155;-57
2021/04/20 02:38:51;;;;;;;1999.90;999.90;;;18.00;82.50;;;;;;5031519;28;20173;-60
2021/04/20 02:41:19;;;;;;;1999.90;999.90;;;17.90;83.00;;;;;;5031481;28;20202;-46
2021/04/20 02:43:47;;;;;;;1999.90;999.90;;;17.90;83.30;;;;;;5031491;28;20162;-52
2021/04/20 02:46:15;;;;;;;1999.90;999.90;;;17.80;83.50;;;;;;5031602;28;20652;-49
2021/04/20 02:48:43;;;;;;;1999.90;999.90;;;17.90;83.60;;;;;;5031468;28;20172;-43
2021/04/20 02:51:11;;;;;;;1999.90;999.90;;;17.80;83.80;;;;;;5031443;28;20162;-51
2021/04/20 02:53:41;;;;;;;1999.90;999.90;;;17.90;83.70;;;;;;5031382;28;20659;-54
2021/04/20 02:56:14;;;;;;;1999.90;999.90;;;17.90;83.90;;;;;;5031338;28;20166;-60
2021/04/20 02:58:43;;;;;;;1999.90;999.90;;;17.80;84.40;;;;;;5031336;28;20162;-60
2021/04/20 03:01:18;;;;;;;1999.90;999.90;;;17.80;84.20;;;;;;5031142;28;20240;-48
2021/04/20 03:03:49;;;;;;;1999.90;999.90;;;17.80;84.30;;;;;;5031040;28;20161;-64
2021/04/20 03:06:17;;;;;;;1999.90;999.90;;;17.70;84.80;;;;;;5031134;28;20169;-61
2021/04/20 03:08:44;;;;;;;1999.90;999.90;;;17.80;84.50;;;;;;5029913;28;20174;-45
2021/04/20 03:11:15;;;;;;;1999.90;999.90;;;17.80;84.30;;;;;;5031134;28;20174;-45
2021/04/20 03:13:44;;;;;;;1999.90;999.90;;;17.80;84.40;;;;;;5031213;28;20206;-62
2021/04/20 03:16:13;;;;;;;1999.90;999.90;;;17.80;84.50;;;;;;5030907;28;20660;-41
2021/04/20 03:18:41;;;;;;;1999.90;999.90;;;17.80;84.40;;;;;;5030969;28;20257;-40
2021/04/20 03:21:11;;;;;;;1999.90;999.90;;;17.70;84.90;;;;;;5030676;28;20320;-59
2021/04/20 03:23:39;;;;;;;1999.90;999.90;;;17.70;85.00;;;;;;5030918;28;20173;-46
2021/04/20 03:26:16;;;;;;;1999.90;999.90;;;17.70;85.10;;;;;;5030797;28;20507;-39
2021/04/20 03:28:43;;;;;;;1999.90;999.90;;;17.70;85.20;;;;;;5030846;28;20157;-47
2021/04/20 03:31:09;;;;;;;1999.90;999.90;;;17.60;85.40;;;;;;5030737;28;20170;-51
2021/04/20 03:33:39;;;;;;;1999.90;999.90;;;17.60;85.70;;;;;;5030706;28;20162;-56
2021/04/20 03:36:18;;;;;;;1999.90;999.90;;;17.60;86.30;;;;;;5030620;28;20205;-41
2021/04/20 03:38:57;;;;;;;1999.90;999.90;;;17.60;86.30;;;;;;5030512;28;20214;-42
2021/04/20 03:41:37;;;;;;;1999.90;999.90;;;17.60;86.30;;;;;;5030424;28;20194;-43
2021/04/20 03:44:08;;;;;;;1999.90;999.90;;;17.60;86.50;;;;;;5030699;28;20207;-38
2021/04/20 03:46:38;;;;;;;1999.90;999.90;;;17.60;86.20;;;;;;5030533;28;20249;-48
2021/04/20 03:49:12;;;;;;;1999.90;999.90;;;17.70;86.00;;;;;;5030522;28;20154;-42
2021/04/20 03:51:43;;;;;;;1999.90;999.90;;;17.70;85.90;;;;;;5030404;28;20165;-46
2021/04/20 03:54:14;;;;;;;1999.90;999.90;;;17.70;85.70;;;;;;5030463;28;20264;-51
2021/04/20 03:56:46;;;;;;;1999.90;999.90;;;17.70;85.70;;;;;;5030315;28;20220;-56
2021/04/20 03:59:15;;;;;;;1999.90;999.90;;;17.60;85.50;;;;;;5030215;28;20257;-62
2021/04/20 04:01:47;;;;;;;1999.90;999.90;;;17.70;85.90;;;;;;5030268;28;20194;-39
2021/04/20 04:04:17;;;;;;;1999.90;999.90;;;17.70;85.60;;;;;;5030292;28;20169;-49
2021/04/20 04:06:46;;;;;;;1999.90;999.90;;;17.70;85.60;;;;;;5030219;28;20170;-55
2021/04/20 04:09:16;;;;;;;1999.90;999.90;;;17.60;86.00;;;;;;5030195;28;20230;-51
2021/04/20 04:12:00;;;;;;;1999.90;999.90;;;17.60;86.00;;;;;;5030067;28;20204;-48
2021/04/20 04:14:30;;;;;;;1999.90;999.90;;;17.50;86.70;;;;;;5030257;28;20203;-48
2021/04/20 04:17:06;;;;;;;1999.90;999.90;;;17.40;86.90;;;;;;5030027;28;20252;-61
2021/04/20 04:19:46;;;;;;;1999.90;999.90;;;17.40;86.80;;;;;;5030145;28;20221;-53
2021/04/20 04:22:15;;;;;;;1999.90;999.90;;;17.50;87.00;;;;;;5029955;28;20228;-49
2021/04/20 04:24:48;;;;;;;1999.90;999.90;;;17.50;86.90;;;;;;5030034;28;20616;-47
2021/04/20 04:27:20;;;;;;;1999.90;999.90;;;17.50;86.60;;;;;;5030037;28;20193;-56
2021/04/20 04:29:49;;;;;;;1999.90;999.90;;;17.50;86.30;;;;;;5029864;28;20150;-46
2021/04/20 04:32:18;;;;;;;1999.90;999.90;;;17.50;86.10;;;;;;5029636;28;20174;-60
2021/04/20 04:34:47;;;;;;;1999.90;999.90;;;17.50;85.70;;;;;;5029758;28;20185;-38
2021/04/20 04:37:18;;;;;;;1999.90;999.90;;;17.50;86.20;;;;;;5029170;28;20170;-50
2021/04/20 04:39:46;;;;;;;1999.90;999.90;;;17.40;86.50;;;;;;5029768;28;20245;-45
2021/04/20 04:42:13;;;;;;;1999.90;999.90;;;17.30;86.70;;;;;;5029783;28;20201;-42
2021/04/20 04:44:40;;;;;;;1999.90;999.90;;;17.40;86.80;;;;;;5029790;28;20173;-60
2021/04/20 04:47:08;;;;;;;1999.90;999.90;;;17.30;87.20;;;;;;5029770;28;20169;-45
2021/04/20 04:49:36;;;;;;;1999.90;999.90;;;17.30;87.40;;;;;;5029701;28;20174;-53
2021/04/20 04:52:05;;;;;;;1999.90;999.90;;;17.20;87.40;;;;;;5029374;28;20170;-42
2021/04/20 04:54:32;;;;;;;1999.90;999.90;;;17.30;87.60;;;;;;5029292;28;20518;-39
2021/04/20 04:57:01;;;;;;;1999.90;999.90;;;17.20;87.80;;;;;;5029229;28;20170;-54
2021/04/20 04:59:31;;;;;;;1999.90;999.90;;;17.20;88.10;;;;;;5029325;28;20477;-44
2021/04/20 05:01:58;;;;;;;1999.90;999.90;;;17.10;88.40;;;;;;5029053;28;20201;-53
2021/04/20 05:04:26;;;;;;;1999.90;999.90;;;17.30;88.00;;;;;;5029271;28;20216;-62
2021/04/20 05:06:53;;;;;;;1999.90;999.90;;;17.20;88.20;;;;;;5029251;28;20631;-47
2021/04/20 05:09:22;;;;;;;1999.90;999.90;;;17.10;88.10;;;;;;5029233;28;20211;-48
2021/04/20 05:11:51;;;;;;;1999.90;999.90;;;17.10;88.60;;;;;;5029029;28;20605;-56
2021/04/20 05:14:20;;;;;;;1999.90;999.90;;;17.20;88.00;;;;;;5029079;28;20644;-39
2021/04/20 05:16:52;;;;;;;1999.90;999.90;;;17.20;87.70;;;;;;5029047;28;20689;-41
2021/04/20 05:19:30;;;;;;;1999.90;999.90;;;17.20;88.10;;;;;;5028705;28;20163;-54
2021/04/20 05:21:58;;;;;;;1999.90;999.90;;;17.20;88.60;;;;;;5028869;28;20205;-60
2021/04/20 05:24:26;;;;;;;1999.90;999.90;;;17.20;88.40;;;;;;5028820;28;20174;-44
2021/04/20 05:26:53;;;;;;;1999.90;999.90;;;17.10;89.00;;;;;;5028674;28;20178;-38
2021/04/20 05:29:20;;;;;;;1999.90;999.90;;;17.10;88.90;;;;;;5028878;28;20170;-47
2021/04/20 05:31:49;;;;;;;1999.90;999.90;;;17.10;88.70;;;;;;5028881;28;20178;-46
2021/04/20 05:34:19;;;;;;;1999.90;999.90;;;17.20;88.30;;;;;;5028842;28;20227;-52
2021/04/20 05:36:48;;;;;;;1999.90;999.90;;;17.20;88.10;;;;;;5028802;28;20147;-44
2021/04/20 05:39:17;;;;;;;1999.90;999.90;;;17.20;87.80;;;;;;5028458;28;20174;-48
2021/04/20 05:41:44;;;;;;;1999.90;999.90;;;17.30;87.40;;;;;;5028352;28;20206;-52
2021/04/20 05:44:14;;;;;;;1999.90;999.90;;;17.30;86.60;;;;;;5028241;28;20613;-46
2021/04/20 05:46:48;;;;;;;1999.90;999.90;;;17.40;86.30;;;;;;5027829;28;20574;-46
2021/04/20 05:49:17;;;;;;;1999.90;999.90;;;17.40;86.80;;;;;;5029985;28;20253;-42
2021/04/20 05:51:45;;;;;;;1999.90;999.90;;;17.50;86.30;;;;;;5031182;28;20178;-40
2021/04/20 05:54:13;;;;;;;1999.90;999.90;;;17.50;86.40;;;;;;5031549;28;20572;-45
2021/04/20 05:56:40;;;;;;;1999.90;999.90;;;17.50;86.30;;;;;;5031432;28;20252;-59
2021/04/20 05:59:07;;;;;;;1999.90;999.90;;;17.50;86.10;;;;;;5031463;28;20656;-57
2021/04/20 06:01:41;;;;;;;1999.90;999.90;;;17.70;85.60;;;;;;5030825;28;20198;-62
2021/04/20 06:04:09;;;;;;;1999.90;999.90;;;17.70;84.90;;;;;;5031229;28;20174;-55
2021/04/20 06:06:39;;;;;;;1999.90;999.90;;;17.80;79.20;;;;;;5031076;28;20219;-55
2021/04/20 06:09:08;;;;;;;1999.90;999.90;;;18.00;80.40;;;;;;5030967;28;20177;-56
2021/04/20 06:11:35;;;;;;;1999.90;999.90;;;18.30;80.60;;;;;;5028959;28;20181;-50
2021/04/20 06:14:02;;;;;;;1999.90;999.90;;;18.50;79.60;;;;;;5028203;28;20184;-53
2021/04/20 06:16:30;;;;;;;1999.90;999.90;;;18.60;79.50;;;;;;5029029;28;20276;-54
2021/04/20 06:18:57;;;;;;;1999.90;999.90;;;18.70;79.50;;;;;;5028400;28;20204;-59
2021/04/20 06:21:26;;;;;;;1999.90;999.90;;;18.90;78.70;;;;;;5029911;28;20684;-59
2021/04/20 06:23:53;;;;;;;1999.90;999.90;;;19.10;77.60;;;;;;5029837;28;20178;-46
2021/04/20 06:26:22;;;;;;;1999.90;999.90;;;19.20;77.40;;;;;;5029859;28;20170;-43
2021/04/20 06:28:49;;;;;;;1999.90;999.90;;;19.30;77.30;;;;;;5010682;28;20182;-54
2021/04/20 06:31:17;;;;;;;1999.90;999.90;;;19.40;76.90;;;;;;5028049;28;20542;-59
2021/04/20 06:33:45;;;;;;;1999.90;999.90;;;19.50;75.90;;;;;;5030396;28;20198;-50
2021/04/20 06:36:12;;;;;;;1999.90;999.90;;;19.70;75.60;;;;;;5029867;28;20182;-57
2021/04/20 06:38:40;;;;;;;1999.90;999.90;;;19.70;74.40;;;;;;5029285;28;20182;-51
2021/04/20 06:41:10;;;;;;;1999.90;999.90;;;19.80;73.80;;;;;;5029680;28;20553;-53
2021/04/20 06:43:57;;;;;;;1999.90;999.90;;;19.90;73.80;;;;;;5030478;28;20170;-51
2021/04/20 06:46:56;;;;;;;1999.90;999.90;;;20.00;73.60;;;;;;5032797;27;20170;-47
2021/04/20 06:49:30;;;;;;;1999.90;999.90;;;20.10;73.50;;;;;;5030141;28;20169;-44
2021/04/20 06:52:13;;;;;;;1999.90;999.90;;;20.10;72.90;;;;;;5030161;28;20158;-45
2021/04/20 06:55:01;;;;;;;1999.90;999.90;;;20.20;72.70;;;;;;5029160;28;20173;-49
2021/04/20 06:57:39;;;;;;;1999.90;999.90;;;20.40;72.60;;;;;;5010586;28;20166;-46
2021/04/20 07:00:24;;;;;;;1999.90;999.90;;;20.50;71.90;;;;;;5009383;28;20230;-43
2021/04/20 07:03:00;;;;;;;1999.90;999.90;;;20.70;70.90;;;;;;5008878;28;20198;-50
2021/04/20 07:06:03;;;;;;;1999.90;999.90;;;20.80;70.40;;;;;;5010571;28;20162;-41
2021/04/20 07:08:54;;;;;;;1999.90;999.90;;;20.90;70.10;;;;;;5009480;28;20557;-50
2021/04/20 07:11:24;;;;;;;1999.90;999.90;;;21.00;70.00;;;;;;5016651;28;20171;-40
2021/04/20 07:13:55;;;;;;;1999.90;999.90;;;21.10;70.00;;;;;;5027267;28;20671;-47
2021/04/20 07:16:37;;;;;;;1999.90;999.90;;;21.10;69.60;;;;;;5029520;28;20186;-41
2021/04/20 07:19:19;;;;;;;1999.90;999.90;;;21.20;69.90;;;;;;5030037;28;20210;-44
2021/04/20 07:22:23;;;;;;;1999.90;999.90;;;21.30;69.40;;;;;;4984901;28;20212;-46
2021/04/20 07:25:22;;;;;;;1999.90;999.90;;;21.40;68.80;;;;;;4971038;28;20694;-38
2021/04/20 07:28:10;;;;;;;1999.90;999.90;;;21.60;68.30;;;;;;4990528;28;20166;-36
2021/04/20 07:31:14;;;;;;;1999.90;999.90;;;21.80;67.60;;;;;;4990465;28;20184;-47
2021/04/20 07:34:11;;;;;;;1999.90;999.90;;;22.00;66.70;;;;;;4974506;28;20886;-42
2021/04/20 07:36:57;;;;;;;1999.90;999.90;;;22.20;65.40;;;;;;4989963;28;20164;-55
2021/04/20 07:39:25;;;;;;;1999.90;999.90;;;22.30;65.00;;;;;;4990266;28;20280;-43
2021/04/20 07:41:54;;;;;;;1999.90;999.90;;;22.50;64.80;;;;;;4989867;28;20206;-45
2021/04/20 07:44:33;;;;;;;1999.90;999.90;;;22.60;64.10;;;;;;4989856;28;20182;-49
2021/04/20 07:47:14;;;;;;;1999.90;999.90;;;22.80;63.20;;;;;;4990476;28;20281;-39
2021/04/20 07:50:09;;;;;;;1999.90;999.90;;;23.00;62.70;;;;;;4989875;28;20186;-38
2021/04/20 07:52:44;;;;;;;1999.90;999.90;;;23.20;61.90;;;;;;4989721;28;20267;-60
2021/04/20 07:55:19;;;;;;;1999.90;999.90;;;23.30;60.80;;;;;;4990893;28;20552;-42
2021/04/20 07:58:02;;;;;;;1999.90;999.90;;;23.50;60.30;;;;;;4989642;28;20162;-46
2021/04/20 08:00:36;;;;;;;1999.90;999.90;;;23.60;60.20;;;;;;4990119;28;20183;-46
2021/04/20 08:03:12;;;;;;;1999.90;999.90;;;23.80;59.40;;;;;;4989989;28;20603;-44
2021/04/20 08:05:52;;;;;;;1999.90;999.90;;;24.10;58.90;;;;;;4989320;28;20614;-44
2021/04/20 08:08:42;;;;;;;1999.90;999.90;;;24.50;57.90;;;;;;4988637;28;20167;-46
2021/04/20 08:11:32;;;;;;;1999.90;999.90;;;24.80;56.90;;;;;;4987968;28;20281;-47
2021/04/20 08:14:25;;;;;;;1999.90;999.90;;;25.20;56.10;;;;;;4990062;28;20515;-47
2021/04/20 08:17:16;;;;;;;1999.90;999.90;;;25.50;55.00;;;;;;4990021;28;20698;-45
2021/04/20 08:19:49;;;;;;;1999.90;999.90;;;25.80;54.40;;;;;;4996028;28;20217;-49
2021/04/20 08:22:17;;;;;;;1999.90;999.90;;;26.20;53.20;;;;;;5028959;28;20202;-46
2021/04/20 08:25:01;;;;;;;1999.90;999.90;;;26.50;52.30;;;;;;5028691;28;20158;-43
2021/04/20 08:27:57;;;;;;;1999.90;999.90;;;26.60;51.80;;;;;;5028488;28;20194;-44
2021/04/20 08:30:29;;;;;;;1999.90;999.90;;;26.60;51.30;;;;;;5027954;28;20209;-44
2021/04/20 08:32:58;;;;;;;1999.90;999.90;;;26.80;51.10;;;;;;5028234;28;20165;-45
2021/04/20 08:35:29;;;;;;;1999.90;999.90;;;27.00;50.40;;;;;;5027730;28;20188;-44
2021/04/20 08:38:26;;;;;;;1999.90;999.90;;;27.00;49.80;;;;;;5027328;28;20170;-44
2021/04/20 08:41:10;;;;;;;1999.90;999.90;;;27.50;48.10;;;;;;5019372;28;20240;-44
2021/04/20 08:43:58;;;;;;;1999.90;999.90;;;27.70;48.40;;;;;;5028958;28;20241;-46
2021/04/20 08:46:37;;;;;;;1999.90;999.90;;;27.70;47.50;;;;;;5027666;28;20429;-44
2021/04/20 08:49:22;;;;;;;1999.90;999.90;;;27.80;47.50;;;;;;5028685;28;20594;-45
2021/04/20 08:51:53;;;;;;;1999.90;999.90;;;28.10;47.00;;;;;;5028658;28;20181;-48
2021/04/20 08:54:20;;;;;;;1999.90;999.90;;;28.40;46.00;;;;;;5028102;28;20178;-46
2021/04/20 08:57:07;;;;;;;1999.90;999.90;;;28.50;44.70;;;;;;5028387;28;20286;-47
2021/04/20 08:59:53;;;;;;;1999.90;999.90;;;28.60;44.60;;;;;;5038406;28;20338;-47
2021/04/20 09:02:35;;;;;;;1999.90;999.90;;;28.80;43.70;;;;;;5027511;28;20210;-45
2021/04/20 09:05:23;;;;;;;1999.90;999.90;;;29.00;43.60;;;;;;5028315;28;20170;-45
2021/04/20 09:07:57;;;;;;;1999.90;999.90;;;29.10;43.40;;;;;;5027790;28;20235;-46
2021/04/20 09:10:40;;;;;;;1999.90;999.90;;;29.40;43.20;;;;;;5027955;28;20261;-45
2021/04/20 09:13:14;;;;;;;1999.90;999.90;;;29.60;42.70;;;;;;5028224;28;20252;-49
2021/04/20 09:15:46;;;;;;;1999.90;999.90;;;29.80;42.40;;;;;;5027893;28;20613;-49
2021/04/20 09:18:19;;;;;;;1999.90;999.90;;;29.60;42.10;;;;;;5021701;28;20189;-55
2021/04/20 09:21:07;;;;;;;1999.90;999.90;;;29.90;42.30;;;;;;5007613;28;20337;-55
2021/04/20 09:23:49;;;;;;;1999.90;999.90;;;30.10;41.90;;;;;;5027207;27;20170;-58
2021/04/20 09:26:29;;;;;;;1999.90;999.90;;;29.70;42.00;;;;;;5097683;27;20207;-61
2021/04/20 09:29:36;;;;;;;1999.90;999.90;;;30.00;41.90;;;;;;5105557;27;20162;-52
2021/04/20 09:32:07;;;;;;;1999.90;999.90;;;30.10;41.80;;;;;;5042738;27;20185;-55
2021/04/20 09:34:42;;;;;;;1999.90;999.90;;;30.30;41.30;;;;;;5045144;27;20318;-56
2021/04/20 09:37:10;;;;;;;1999.90;999.90;;;30.50;40.90;;;;;;5031162;28;20166;-52
2021/04/20 09:39:41;;;;;;;1999.90;999.90;;;30.60;40.60;;;;;;5052252;27;20170;-50
2021/04/20 09:42:10;;;;;;;1999.90;999.90;;;30.70;40.10;;;;;;5032028;28;20253;-51
2021/04/20 09:44:41;;;;;;;1999.90;999.90;;;30.80;40.20;;;;;;5052553;27;20665;-61
2021/04/20 09:47:43;;;;;;;1999.90;999.90;;;30.90;40.20;;;;;;5029989;28;20188;-59
2021/04/20 09:50:48;;;;;;;1999.90;999.90;;;31.10;39.40;;;;;;5017652;28;20167;-64
2021/04/20 09:53:52;;;;;;;1999.90;999.90;;;31.40;39.20;;;;;;5011813;28;20177;-44
2021/04/20 09:56:31;;;;;;;1999.90;999.90;;;31.20;39.10;;;;;;5012951;28;20185;-51
2021/04/20 09:59:02;;;;;;;1999.90;999.90;;;30.60;39.90;;;;;;5030360;28;20586;-45
2021/04/20 10:01:47;;;;;;;1999.90;999.90;;;30.70;39.80;;;;;;5030217;28;20254;-50
2021/04/20 10:04:57;;;;;;;1999.90;999.90;;;31.30;39.10;;;;;;5031990;28;20644;-50
2021/04/20 10:07:50;;;;;;;1999.90;999.90;;;31.10;39.20;;;;;;5022608;28;20204;-41
2021/04/20 10:10:30;;;;;;;1999.90;999.90;;;31.60;38.80;;;;;;5030810;28;20166;-44
2021/04/20 10:13:27;;;;;;;1999.90;999.90;;;32.10;37.30;;;;;;5029192;28;20201;-48
2021/04/20 10:16:03;;;;;;;1999.90;999.90;;;32.10;37.50;;;;;;5035170;27;20162;-50
2021/04/20 10:19:04;;;;;;;1999.90;999.90;;;32.20;37.60;;;;;;5031302;28;20254;-44
2021/04/20 10:21:57;;;;;;;1999.90;999.90;;;32.30;37.10;;;;;;5030250;28;20236;-49
2021/04/20 10:24:26;;;;;;;1999.90;999.90;;;32.40;37.20;;;;;;5031432;28;20162;-40
2021/04/20 10:26:54;;;;;;;1999.90;999.90;;;32.70;35.40;;;;;;5033030;28;20587;-48
2021/04/20 10:29:35;;;;;;;1999.90;999.90;;;32.80;35.30;;;;;;5032016;28;20231;-56
2021/04/20 10:32:13;;;;;;;1999.90;999.90;;;31.90;36.30;;;;;;5030963;28;20162;-56
2021/04/20 10:35:00;;;;;;;1999.90;999.90;;;32.30;36.40;;;;;;5029275;28;20204;-57
2021/04/20 10:37:37;;;;;;;1999.90;999.90;;;32.60;35.80;;;;;;5030603;28;20640;-60
2021/04/20 10:40:14;;;;;;;1999.90;999.90;;;32.50;34.50;;;;;;5024875;28;20173;-57
2021/04/20 10:42:47;;;;;;;1999.90;999.90;;;32.60;34.60;;;;;;5028524;28;20181;-58
2021/04/20 10:45:17;;;;;;;1999.90;999.90;;;32.80;33.40;;;;;;5030821;28;20199;-53
2021/04/20 10:47:50;;;;;;;1999.90;999.90;;;32.80;33.10;;;;;;5027330;28;20349;-60
2021/04/20 10:50:25;;;;;;;1999.90;999.90;;;32.80;33.50;;;;;;5029311;28;20173;-57
2021/04/20 10:53:20;;;;;;;1999.90;999.90;;;32.90;32.50;;;;;;5019501;28;20173;-51
2021/04/20 10:56:01;;;;;;;1999.90;999.90;;;32.80;33.40;;;;;;5031722;28;20190;-55
2021/04/20 10:58:30;;;;;;;1999.90;999.90;;;32.90;32.80;;;;;;5030118;28;20264;-58
2021/04/20 11:00:57;;;;;;;1999.90;999.90;;;33.10;32.90;;;;;;5030328;28;20206;-47
2021/04/20 11:03:31;;;;;;;1999.90;999.90;;;33.10;32.20;;;;;;5030329;28;20181;-60
2021/04/20 11:05:58;;;;;;;1999.90;999.90;;;33.00;32.80;;;;;;5030901;28;20661;-60
2021/04/20 11:08:37;;;;;;;1999.90;999.90;;;32.90;33.00;;;;;;5029659;28;20219;-47
2021/04/20 11:11:05;;;;;;;1999.90;999.90;;;33.10;34.40;;;;;;5012464;28;20635;-53
2021/04/20 11:13:39;;;;;;;1999.90;999.90;;;33.30;33.30;;;;;;5030288;28;20169;-57
2021/04/20 11:16:10;;;;;;;1999.90;999.90;;;33.50;32.70;;;;;;5029177;28;20227;-43
2021/04/20 11:18:39;;;;;;;1999.90;999.90;;;33.50;32.70;;;;;;5029615;28;20253;-42
2021/04/20 11:21:13;;;;;;;1999.90;999.90;;;32.50;33.50;;;;;;5030196;28;20680;-48
2021/04/20 11:24:14;;;;;;;1999.90;999.90;;;32.90;33.40;;;;;;5030567;28;20570;-46
2021/04/20 11:26:45;;;;;;;1999.90;999.90;;;33.40;32.80;;;;;;5030230;28;20723;-58
2021/04/20 11:29:26;;;;;;;1999.90;999.90;;;33.50;32.60;;;;;;5029988;28;20162;-57
2021/04/20 11:31:56;;;;;;;1999.90;999.90;;;33.50;32.50;;;;;;5029642;28;20593;-58
2021/04/20 11:34:31;;;;;;;1999.90;999.90;;;33.50;32.80;;;;;;5029913;28;20170;-55
2021/04/20 11:37:06;;;;;;;1999.90;999.90;;;33.40;33.40;;;;;;5029687;28;20173;-53
2021/04/20 11:39:41;;;;;;;1999.90;999.90;;;33.40;33.20;;;;;;5036793;28;20676;-57
2021/04/20 11:42:34;;;;;;;1999.90;999.90;;;33.30;33.20;;;;;;5028935;28;20201;-54
2021/04/20 11:45:13;;;;;;;1999.90;999.90;;;33.40;32.80;;;;;;5034381;28;20239;-48
2021/04/20 11:48:01;;;;;;;1999.90;999.90;;;33.30;32.90;;;;;;5029441;28;20214;-49
2021/04/20 11:50:32;;;;;;;1999.90;999.90;;;33.10;33.10;;;;;;5029220;28;20563;-57
2021/04/20 11:53:05;;;;;;;1999.90;999.90;;;33.10;33.30;;;;;;5029538;28;20640;-60
2021/04/20 11:55:35;;;;;;;1999.90;999.90;;;33.20;33.30;;;;;;5030251;28;20600;-58
2021/04/20 11:58:04;;;;;;;1999.90;999.90;;;33.10;32.80;;;;;;5029687;28;20176;-53
2021/04/20 12:00:33;;;;;;;1999.90;999.90;;;33.00;32.50;;;;;;5029070;28;20709;-58
2021/04/20 12:03:14;;;;;;;1999.90;999.90;;;33.10;32.50;;;;;;5042460;27;20532;-57
2021/04/20 12:05:41;;;;;;;1999.90;999.90;;;32.80;32.10;;;;;;5018853;28;20158;-53
2021/04/20 12:08:13;;;;;;;1999.90;999.90;;;32.70;33.20;;;;;;5010058;28;20217;-58
2021/04/20 12:10:42;;;;;;;1999.90;999.90;;;32.70;33.30;;;;;;5028983;28;20537;-59
2021/04/20 12:13:10;;;;;;;1999.90;999.90;;;32.70;33.60;;;;;;5028136;28;20240;-61
2021/04/20 12:15:37;;;;;;;1999.90;999.90;;;32.80;33.70;;;;;;5026833;28;20276;-54
2021/04/20 12:18:07;;;;;;;1999.90;999.90;;;32.80;33.10;;;;;;5030045;28;20216;-47
2021/04/20 12:20:35;;;;;;;1999.90;999.90;;;32.80;33.40;;;;;;5028603;28;20573;-46
2021/04/20 12:23:02;;;;;;;1999.90;999.90;;;33.10;33.30;;;;;;5029319;28;20185;-48
2021/04/20 12:25:29;;;;;;;1999.90;999.90;;;33.20;32.80;;;;;;5029577;28;20651;-42
2021/04/20 12:28:02;;;;;;;1999.90;999.90;;;33.30;32.10;;;;;;5029549;28;20178;-49
2021/04/20 12:30:29;;;;;;;1999.90;999.90;;;33.30;32.50;;;;;;5028697;28;20199;-45
2021/04/20 12:32:58;;;;;;;1999.90;999.90;;;33.00;31.80;;;;;;5029199;28;20664;-44